London Airport
CYXU : now visible

Airfield :











YOU CAN JOIN US ON...

 
LOGIN :

Register | Disclaimer

   EN    FR    IT 

 









Legend :    VFR   Marginal VFR   IFR   Intensive IFR   Very Intensive IFR
Visi :
Ceiling :
>= 8 km
>= 3000ft
5 to 8 km
1000 to 3000 ft
1500m to 5 km
500 to 1000 ft
800 to 1500m
200 to 500 ft
< 800m
< 200 ft
Symbols :   Thunderstorms  Fog  Heavy snow  Heavy precipitations  Wind > 20 kt






- Airport Elevation : 912 ft
- IATA code : YXU


CYXU - London

CURRENT METAR :
  • 240300Z 25006KT 15SM OVC032 M06/M11 A3033 RMK SC8 SLP289

EXPIRED METARs :
  • 240200Z VRB02KT 15SM OVC030 M06/M11 A3033 RMK SC8 SLP289
  • 240100Z 27003KT 15SM OVC031 M06/M12 A3033 RMK SC8 SLP289
  • 240046Z 27004KT 15SM OVC031 M06/M11 A3033 RMK SC8 SLP290

TAF TAF CYXU
Valid from the 24 at 00:00 until the 25 at 00:00 UTC


232338Z 2400/2424 27008KT P6SM BKN030
TEMPO 2400/2409 5SM -SHSN OVC020
BECMG 2400/2402 VRB03KT
FM240900 12005KT P6SM FEW020
FM241200 13005KT P6SM FEW020 BKN100
FM241800 16008KT 6SM -SN BKN015 OVC060
FM242100 16008KT P6SM BKN010 OVC050 RMK NXT FCST BY 240600Z
CZYZ FIR / North America



MET'MAP, your aeronautical weather chart ! - Copyright ORBIFLY December 2007 - Disclaimer

ORBIFLY MET'MAP TEAM :

Programming & Development : Alexandra Zaïnal
Concept & original design : Baudouin d'Aumeries
Assistance for programming : Marc-Olivier Méhu
Technical & hardware support : Manuel Goepfert

Contact : metmap@orbifly.com




SOURCES & CREDITS :

   NOAA       Earth
Advisory